createdAt,value
2023-04-22T00:00:19.341Z,6.40
2023-04-22T00:01:18.357Z,7.20
2023-04-22T00:02:18.357Z,6.60
2023-04-22T00:03:18.515Z,7.80
2023-04-22T00:04:18.582Z,7.40
2023-04-22T00:05:20.471Z,7.20
2023-04-22T00:06:19.313Z,7.20
2023-04-22T00:07:18.274Z,6.50
2023-04-22T00:08:18.270Z,6.70
2023-04-22T00:09:18.263Z,7.00
2023-04-22T00:10:18.250Z,6.50
2023-04-22T00:11:18.243Z,6.70
2023-04-22T00:12:18.258Z,7.10
2023-04-22T00:13:18.227Z,6.50
2023-04-22T00:14:18.220Z,7.10
2023-04-22T00:15:18.215Z,7.10
2023-04-22T00:16:18.230Z,6.60
2023-04-22T00:17:18.244Z,6.40
2023-04-22T00:18:18.193Z,6.60
2023-04-22T00:19:18.185Z,6.70
2023-04-22T00:20:18.175Z,6.90
2023-04-22T00:21:18.172Z,6.30
2023-04-22T00:22:18.181Z,7.10
2023-04-22T00:23:18.146Z,6.60
2023-04-22T00:24:18.138Z,6.60
2023-04-22T00:25:18.124Z,6.30
2023-04-22T00:26:19.135Z,6.80
2023-04-22T00:27:18.141Z,7.00
2023-04-22T00:28:18.109Z,6.20
2023-04-22T00:29:18.100Z,6.80
2023-04-22T00:30:18.096Z,6.40
2023-04-22T00:31:18.106Z,6.50
2023-04-22T00:32:18.091Z,6.50
2023-04-22T00:33:18.060Z,6.50
2023-04-22T00:34:18.189Z,6.50
2023-04-22T00:35:18.060Z,6.90
2023-04-22T00:36:18.054Z,6.50
2023-04-22T00:37:18.060Z,6.70
2023-04-22T00:38:18.028Z,6.90
2023-04-22T00:39:18.021Z,6.00
2023-04-22T00:40:18.024Z,6.40
2023-04-22T00:41:18.019Z,6.60
2023-04-22T00:42:18.031Z,6.80
2023-04-22T00:43:17.995Z,6.80
2023-04-22T00:44:17.974Z,7.10
2023-04-22T00:45:17.992Z,6.10
2023-04-22T00:46:17.979Z,6.50
2023-04-22T00:47:18.021Z,6.50
2023-04-22T00:48:17.958Z,6.60
2023-04-22T00:49:17.936Z,6.40
2023-04-22T00:50:17.942Z,6.30
2023-04-22T00:51:17.926Z,6.50
2023-04-22T00:52:17.955Z,7.00
2023-04-22T00:53:17.924Z,6.60
2023-04-22T00:54:17.893Z,5.90
2023-04-22T00:55:17.875Z,6.30
2023-04-22T00:56:17.877Z,6.20
2023-04-22T00:57:17.920Z,6.40
2023-04-22T00:58:17.870Z,6.00
2023-04-22T00:59:17.858Z,6.40
2023-04-22T01:00:17.849Z,6.10
2023-04-22T01:01:17.877Z,6.80
2023-04-22T01:02:18.015Z,6.10
2023-04-22T01:03:18.031Z,6.50
2023-04-22T01:04:17.968Z,7.40
2023-04-22T01:05:17.804Z,6.40
2023-04-22T01:06:17.810Z,7.20
2023-04-22T01:07:17.818Z,6.70
2023-04-22T01:08:17.799Z,7.10
2023-04-22T01:09:17.778Z,7.40
2023-04-22T01:10:17.770Z,6.80
2023-04-22T01:11:17.764Z,6.50
2023-04-22T01:12:17.773Z,7.20
2023-04-22T01:13:17.758Z,6.20
2023-04-22T01:14:17.741Z,6.60
2023-04-22T01:15:17.735Z,6.60
2023-04-22T01:16:17.761Z,6.60
2023-04-22T01:17:17.750Z,6.50
2023-04-22T01:18:17.715Z,6.30
2023-04-22T01:19:17.729Z,6.50
2023-04-22T01:20:17.693Z,6.00
2023-04-22T01:21:17.685Z,6.40
2023-04-22T01:22:17.697Z,6.70
2023-04-22T01:23:17.665Z,6.60
2023-04-22T01:24:17.671Z,6.30
2023-04-22T01:25:17.667Z,6.10
2023-04-22T01:26:17.653Z,6.40
2023-04-22T01:27:17.677Z,6.10
2023-04-22T01:28:17.648Z,5.50
2023-04-22T01:29:17.623Z,5.60
2023-04-22T01:30:17.618Z,6.40
2023-04-22T01:31:17.612Z,5.40
2023-04-22T01:32:17.686Z,5.80
2023-04-22T01:33:17.634Z,6.20
2023-04-22T01:34:17.591Z,6.30
2023-04-22T01:35:17.569Z,6.80
2023-04-22T01:36:17.606Z,6.40
2023-04-22T01:37:17.582Z,7.20
2023-04-22T01:38:17.567Z,7.10
2023-04-22T01:39:17.555Z,6.50
2023-04-22T01:40:17.544Z,6.40
2023-04-22T01:41:17.522Z,5.90
2023-04-22T01:42:17.545Z,6.30
2023-04-22T01:43:17.516Z,5.90
2023-04-22T01:44:17.506Z,6.00
2023-04-22T01:45:17.515Z,6.00
2023-04-22T01:46:17.514Z,5.40
2023-04-22T01:47:17.507Z,5.80
2023-04-22T01:48:17.523Z,5.60
2023-04-22T01:49:17.468Z,6.00
2023-04-22T01:50:17.454Z,5.50
2023-04-22T01:51:17.468Z,5.70
2023-04-22T01:52:17.477Z,5.70
2023-04-22T01:53:17.476Z,5.40
2023-04-22T01:54:17.432Z,6.70
2023-04-22T01:55:17.479Z,6.40
2023-04-22T01:56:17.417Z,6.20
2023-04-22T01:57:17.429Z,6.20
2023-04-22T01:58:17.397Z,6.50
2023-04-22T01:59:17.397Z,5.90
2023-04-22T02:00:17.386Z,5.80
2023-04-22T02:01:17.393Z,6.30
2023-04-22T02:02:17.465Z,5.80
2023-04-22T02:03:17.414Z,5.70
2023-04-22T02:04:17.357Z,6.00
2023-04-22T02:05:17.344Z,6.30
2023-04-22T02:06:17.338Z,6.00
2023-04-22T02:07:17.368Z,5.80
2023-04-22T02:08:17.317Z,5.60
2023-04-22T02:09:17.314Z,5.90
2023-04-22T02:10:17.300Z,5.60
2023-04-22T02:11:17.292Z,5.70
2023-04-22T02:12:17.309Z,5.50
2023-04-22T02:13:17.269Z,5.90
2023-04-22T02:14:17.270Z,5.70
2023-04-22T02:15:17.263Z,6.00
2023-04-22T02:16:17.331Z,5.50
2023-04-22T02:17:17.248Z,6.70
2023-04-22T02:18:17.258Z,6.10
2023-04-22T02:19:17.225Z,5.70
2023-04-22T02:20:17.266Z,5.70
2023-04-22T02:21:17.219Z,5.60
2023-04-22T02:22:17.204Z,6.00
2023-04-22T02:23:17.222Z,6.10
2023-04-22T02:24:17.194Z,6.40
2023-04-22T02:25:17.180Z,5.90
2023-04-22T02:26:17.181Z,5.40
2023-04-22T02:27:17.182Z,5.70
2023-04-22T02:28:17.195Z,4.70
2023-04-22T02:29:17.173Z,6.00
2023-04-22T02:30:17.147Z,5.50
2023-04-22T02:31:17.149Z,5.60
2023-04-22T02:32:17.119Z,5.80
2023-04-22T02:33:17.142Z,5.50
2023-04-22T02:34:17.116Z,5.70
2023-04-22T02:35:17.100Z,5.60
2023-04-22T02:36:17.099Z,5.80
2023-04-22T02:37:17.094Z,5.30
2023-04-22T02:38:17.116Z,5.70
2023-04-22T02:39:17.066Z,5.60
2023-04-22T02:40:17.069Z,5.40
2023-04-22T02:41:17.050Z,5.50
2023-04-22T02:42:17.049Z,5.10
2023-04-22T02:43:17.063Z,5.30
2023-04-22T02:44:17.033Z,5.60
2023-04-22T02:45:17.018Z,5.40
2023-04-22T02:46:17.063Z,5.10
2023-04-22T02:47:17.008Z,5.50
2023-04-22T02:48:17.022Z,5.30
2023-04-22T02:49:17.019Z,5.30
2023-04-22T02:50:16.986Z,5.30
2023-04-22T02:51:16.970Z,5.70
2023-04-22T02:52:16.983Z,5.80
2023-04-22T02:53:16.992Z,5.90
2023-04-22T02:54:16.967Z,6.10
2023-04-22T02:55:16.950Z,6.00
2023-04-22T02:56:16.927Z,5.50
2023-04-22T02:57:16.928Z,5.70
2023-04-22T02:58:16.943Z,5.70
2023-04-22T02:59:17.024Z,6.30
2023-04-22T03:00:16.912Z,6.60
2023-04-22T03:01:16.936Z,6.70
2023-04-22T03:02:16.918Z,6.50
2023-04-22T03:03:16.993Z,6.60
2023-04-22T03:04:16.965Z,6.80
2023-04-22T03:05:16.857Z,6.40
2023-04-22T03:06:16.846Z,6.10
2023-04-22T03:07:16.842Z,5.80
2023-04-22T03:08:16.858Z,7.70
2023-04-22T03:09:16.827Z,5.70
2023-04-22T03:10:16.816Z,6.20
2023-04-22T03:11:16.817Z,6.30
2023-04-22T03:12:16.799Z,5.90
2023-04-22T03:13:16.820Z,5.60
2023-04-22T03:14:16.807Z,5.70
2023-04-22T03:15:19.585Z,5.50
2023-04-22T03:16:16.838Z,5.80
2023-04-22T03:17:16.780Z,5.50
2023-04-22T03:18:16.778Z,5.90
2023-04-22T03:19:16.754Z,5.90
2023-04-22T03:20:16.752Z,5.40
2023-04-22T03:21:16.751Z,5.70
2023-04-22T03:22:16.735Z,5.40
2023-04-22T03:23:16.749Z,6.30
2023-04-22T03:24:16.724Z,5.70
2023-04-22T03:25:16.709Z,5.10
2023-04-22T03:26:16.699Z,5.80
2023-04-22T03:27:16.686Z,5.60
2023-04-22T03:28:16.710Z,5.50
2023-04-22T03:29:16.676Z,7.50
2023-04-22T03:30:16.693Z,5.70
2023-04-22T03:31:16.661Z,5.50
2023-04-22T03:32:16.692Z,5.90
2023-04-22T03:33:16.782Z,5.60
2023-04-22T03:34:16.652Z,5.30
2023-04-22T03:35:16.631Z,5.70
2023-04-22T03:36:16.621Z,5.90
2023-04-22T03:37:16.624Z,5.30
2023-04-22T03:38:16.667Z,5.20
2023-04-22T03:39:16.604Z,5.20
2023-04-22T03:40:16.605Z,5.60
2023-04-22T03:41:16.612Z,5.50
2023-04-22T03:42:16.578Z,5.60
2023-04-22T03:43:16.596Z,6.40
2023-04-22T03:44:16.566Z,5.80
2023-04-22T03:45:16.565Z,6.30
2023-04-22T03:46:16.580Z,6.30
2023-04-22T03:47:16.539Z,6.90
2023-04-22T03:48:16.553Z,6.80
2023-04-22T03:49:16.546Z,6.30
2023-04-22T03:50:16.513Z,6.20
2023-04-22T03:51:16.502Z,6.30
2023-04-22T03:52:16.502Z,6.50
2023-04-22T03:53:16.514Z,5.80
2023-04-22T03:54:16.493Z,6.20
2023-04-22T03:55:16.466Z,6.10
2023-04-22T03:56:16.472Z,7.20
2023-04-22T03:57:17.453Z,6.40
2023-04-22T03:58:16.484Z,5.80
2023-04-22T03:59:16.441Z,6.10
2023-04-22T04:00:16.440Z,6.20
2023-04-22T04:01:16.423Z,5.50
2023-04-22T04:02:16.513Z,5.80
2023-04-22T04:03:16.548Z,5.80
2023-04-22T04:04:16.618Z,5.70
2023-04-22T04:05:16.525Z,5.50
2023-04-22T04:06:16.388Z,5.20
2023-04-22T04:07:16.378Z,5.20
2023-04-22T04:08:16.396Z,5.30
2023-04-22T04:09:16.361Z,5.10
2023-04-22T04:10:16.356Z,6.20
2023-04-22T04:11:16.353Z,5.60
2023-04-22T04:12:16.340Z,5.80
2023-04-22T04:13:16.362Z,5.10
2023-04-22T04:14:16.374Z,5.60
2023-04-22T04:15:16.333Z,4.90
2023-04-22T04:16:16.398Z,5.10
2023-04-22T04:17:16.305Z,5.20
2023-04-22T04:18:16.312Z,5.50
2023-04-22T04:19:16.288Z,5.20
2023-04-22T04:20:16.292Z,5.50
2023-04-22T04:21:16.267Z,5.40
2023-04-22T04:22:16.281Z,5.30
2023-04-22T04:23:16.280Z,5.90
2023-04-22T04:24:16.247Z,5.40
2023-04-22T04:25:16.232Z,5.50
2023-04-22T04:26:16.231Z,5.30
2023-04-22T04:27:16.224Z,5.30
2023-04-22T04:28:16.254Z,5.00
2023-04-22T04:29:16.205Z,5.70
2023-04-22T04:30:16.195Z,5.70
2023-04-22T04:31:17.220Z,6.10
2023-04-22T04:32:16.175Z,5.70
2023-04-22T04:33:16.207Z,5.70
2023-04-22T04:34:16.165Z,6.20
2023-04-22T04:35:16.164Z,5.90
2023-04-22T04:36:16.169Z,5.70
2023-04-22T04:37:16.141Z,5.30
2023-04-22T04:38:16.158Z,5.50
2023-04-22T04:39:16.128Z,5.10
2023-04-22T04:40:16.125Z,5.30
2023-04-22T04:41:16.112Z,4.70
2023-04-22T04:42:16.123Z,4.80
2023-04-22T04:43:16.148Z,5.20
2023-04-22T04:44:16.086Z,5.80
2023-04-22T04:45:16.122Z,5.30
2023-04-22T04:46:16.095Z,5.90
2023-04-22T04:47:16.066Z,5.30
2023-04-22T04:48:16.107Z,4.60
2023-04-22T04:49:16.086Z,5.10
2023-04-22T04:50:16.041Z,4.80
2023-04-22T04:51:16.631Z,5.00
2023-04-22T04:52:16.031Z,4.50
2023-04-22T04:53:16.064Z,4.70
2023-04-22T04:54:16.024Z,4.60
2023-04-22T04:55:15.997Z,4.80
2023-04-22T04:56:16.005Z,4.70
2023-04-22T04:57:16.010Z,4.40
2023-04-22T04:58:15.977Z,5.20
2023-04-22T04:59:15.999Z,4.40
2023-04-22T05:00:15.959Z,4.90
2023-04-22T05:01:15.977Z,5.00
2023-04-22T05:02:16.043Z,5.00
2023-04-22T05:03:16.049Z,5.20
2023-04-22T05:04:16.189Z,5.20
2023-04-22T05:05:15.926Z,5.10
2023-04-22T05:06:15.936Z,5.30
2023-04-22T05:07:15.907Z,4.80
2023-04-22T05:08:15.914Z,4.60
2023-04-22T05:09:15.918Z,4.80
2023-04-22T05:10:15.914Z,5.10
2023-04-22T05:11:15.888Z,5.00
2023-04-22T05:12:15.887Z,4.70
2023-04-22T05:13:15.857Z,4.80
2023-04-22T05:14:15.891Z,4.90
2023-04-22T05:15:15.856Z,4.70
2023-04-22T05:16:15.879Z,4.50
2023-04-22T05:17:15.839Z,4.30
2023-04-22T05:18:15.823Z,3.90
2023-04-22T05:19:16.853Z,4.40
2023-04-22T05:20:15.827Z,4.60
2023-04-22T05:21:15.814Z,4.20
2023-04-22T05:22:15.804Z,4.00
2023-04-22T05:23:15.783Z,4.10
2023-04-22T05:24:15.802Z,3.70
2023-04-22T05:25:15.772Z,4.00
2023-04-22T05:26:15.773Z,3.90
2023-04-22T05:27:15.758Z,3.50
2023-04-22T05:28:15.740Z,3.60
2023-04-22T05:29:15.761Z,3.90
2023-04-22T05:30:15.729Z,3.40
2023-04-22T05:31:15.722Z,3.30
2023-04-22T05:32:15.777Z,4.10
2023-04-22T05:33:15.729Z,3.50
2023-04-22T05:34:15.740Z,3.90
2023-04-22T05:35:15.694Z,3.50
2023-04-22T05:36:15.686Z,3.20
2023-04-22T05:37:15.673Z,3.40
2023-04-22T05:38:15.668Z,3.60
2023-04-22T05:39:15.694Z,3.50
2023-04-22T05:40:15.649Z,3.60
2023-04-22T05:41:15.640Z,3.90
2023-04-22T05:42:15.638Z,3.30
2023-04-22T05:43:15.621Z,3.50
2023-04-22T05:44:15.646Z,3.20
2023-04-22T05:45:15.610Z,3.20
2023-04-22T05:46:15.663Z,3.70
2023-04-22T05:47:15.601Z,3.70
2023-04-22T05:48:15.588Z,4.30
2023-04-22T05:49:15.604Z,3.90
2023-04-22T05:50:15.566Z,3.60
2023-04-22T05:51:15.560Z,3.80
2023-04-22T05:52:15.550Z,3.90
2023-04-22T05:53:15.542Z,3.20
2023-04-22T05:54:15.571Z,3.90
2023-04-22T05:55:15.543Z,3.50
2023-04-22T05:56:15.516Z,3.70
2023-04-22T05:57:16.501Z,3.80
2023-04-22T05:58:16.501Z,3.50
2023-04-22T05:59:15.525Z,3.30
2023-04-22T06:00:15.489Z,3.70
2023-04-22T06:01:15.484Z,3.70
2023-04-22T06:02:15.569Z,3.30
2023-04-22T06:03:15.644Z,3.70
2023-04-22T06:04:15.861Z,3.60
2023-04-22T06:05:15.644Z,3.40
2023-04-22T06:06:15.445Z,3.30
2023-04-22T06:07:15.438Z,3.60
2023-04-22T06:08:15.429Z,3.20
2023-04-22T06:09:15.447Z,3.30
2023-04-22T06:10:15.427Z,3.40
2023-04-22T06:11:15.405Z,3.30
2023-04-22T06:12:15.396Z,3.40
2023-04-22T06:13:15.380Z,3.70
2023-04-22T06:14:16.407Z,3.90
2023-04-22T06:15:15.379Z,3.80
2023-04-22T06:16:15.367Z,3.70
2023-04-22T06:17:15.361Z,3.80
2023-04-22T06:18:15.354Z,3.50
2023-04-22T06:19:15.374Z,3.30
2023-04-22T06:20:15.334Z,3.80
2023-04-22T06:21:15.327Z,3.80
2023-04-22T06:22:15.323Z,4.00
2023-04-22T06:23:15.312Z,3.80
2023-04-22T06:24:15.333Z,3.60
2023-04-22T06:25:15.302Z,3.70
2023-04-22T06:26:15.294Z,3.70
2023-04-22T06:27:15.294Z,3.50
2023-04-22T06:28:15.272Z,3.20
2023-04-22T06:29:15.292Z,3.30
2023-04-22T06:30:15.262Z,4.00
2023-04-22T06:31:15.277Z,3.20
2023-04-22T06:32:15.246Z,3.70
2023-04-22T06:33:15.289Z,3.80
2023-04-22T06:34:15.266Z,4.10
2023-04-22T06:35:15.223Z,3.80
2023-04-22T06:36:15.216Z,3.50
2023-04-22T06:37:15.218Z,3.90
2023-04-22T06:38:15.205Z,3.60
2023-04-22T06:39:15.217Z,3.90
2023-04-22T06:40:15.185Z,3.60
2023-04-22T06:41:15.174Z,3.90
2023-04-22T06:42:15.171Z,3.60
2023-04-22T06:43:15.172Z,3.50
2023-04-22T06:44:15.179Z,3.60
2023-04-22T06:45:15.153Z,3.50
2023-04-22T06:46:15.178Z,3.60
2023-04-22T06:47:15.143Z,3.70
2023-04-22T06:48:15.125Z,4.00
2023-04-22T06:49:15.152Z,4.10
2023-04-22T06:50:15.129Z,4.00
2023-04-22T06:51:15.104Z,3.70
2023-04-22T06:52:15.121Z,4.30
2023-04-22T06:53:15.089Z,4.00
2023-04-22T06:54:15.102Z,3.60
2023-04-22T06:55:15.081Z,3.50
2023-04-22T06:56:15.068Z,4.10
2023-04-22T06:57:15.060Z,4.10
2023-04-22T06:58:15.060Z,3.70
2023-04-22T06:59:15.069Z,3.80
2023-04-22T07:00:15.047Z,4.10
2023-04-22T07:01:15.036Z,3.70
2023-04-22T07:02:15.137Z,4.00
2023-04-22T07:03:16.064Z,3.70
2023-04-22T07:04:15.075Z,4.10
2023-04-22T07:05:15.007Z,4.40
2023-04-22T07:06:15.004Z,4.50
2023-04-22T07:07:14.991Z,3.80
2023-04-22T07:08:14.985Z,3.80
2023-04-22T07:09:14.998Z,4.20
2023-04-22T07:10:14.993Z,4.50
2023-04-22T07:11:14.965Z,4.10
2023-04-22T07:12:14.952Z,3.90
2023-04-22T07:13:14.946Z,4.60
2023-04-22T07:14:14.966Z,4.30
2023-04-22T07:15:14.931Z,4.20
2023-04-22T07:16:14.966Z,4.10
2023-04-22T07:17:14.912Z,4.00
2023-04-22T07:18:14.901Z,4.00
2023-04-22T07:19:14.922Z,3.80
2023-04-22T07:20:14.909Z,3.90
2023-04-22T07:21:14.890Z,3.80
2023-04-22T07:22:14.881Z,3.80
2023-04-22T07:23:14.874Z,3.70
2023-04-22T07:24:14.888Z,3.70
2023-04-22T07:25:14.854Z,3.60
2023-04-22T07:26:14.848Z,3.60
2023-04-22T07:27:14.843Z,3.80
2023-04-22T07:28:14.833Z,3.80
2023-04-22T07:29:14.846Z,3.70
2023-04-22T07:30:14.844Z,3.70
2023-04-22T07:31:14.822Z,3.60
2023-04-22T07:32:14.818Z,3.90
2023-04-22T07:33:14.801Z,3.80
2023-04-22T07:34:14.825Z,4.10
2023-04-22T07:35:14.789Z,3.60
2023-04-22T07:36:14.779Z,3.60
2023-04-22T07:37:14.771Z,3.50
2023-04-22T07:38:14.811Z,4.20
2023-04-22T07:39:14.786Z,4.00
2023-04-22T07:40:14.759Z,3.90
2023-04-22T07:41:14.739Z,3.50
2023-04-22T07:42:14.743Z,3.80
2023-04-22T07:43:14.752Z,3.60
2023-04-22T07:44:14.747Z,3.60
2023-04-22T07:45:14.732Z,3.30
2023-04-22T07:46:14.725Z,3.80
2023-04-22T07:47:14.705Z,3.50
2023-04-22T07:48:14.703Z,3.20
2023-04-22T07:49:14.718Z,3.20
2023-04-22T07:50:14.689Z,2.90
2023-04-22T07:51:14.675Z,2.80
2023-04-22T07:52:14.671Z,2.90
2023-04-22T07:53:14.727Z,2.70
2023-04-22T07:54:14.658Z,2.90
2023-04-22T07:55:14.673Z,2.90
2023-04-22T07:56:14.648Z,2.60
2023-04-22T07:57:14.638Z,3.30
2023-04-22T07:58:14.633Z,2.90
2023-04-22T07:59:14.622Z,3.30
2023-04-22T08:00:14.641Z,3.00
2023-04-22T08:01:14.646Z,3.00
2023-04-22T08:02:14.693Z,3.50
2023-04-22T08:03:14.816Z,2.80
2023-04-22T08:04:14.920Z,3.10
2023-04-22T08:05:14.643Z,2.80
2023-04-22T08:06:14.580Z,3.10
2023-04-22T08:07:30.805Z,2.90
2023-04-22T08:08:16.575Z,2.90
2023-04-22T08:09:14.592Z,2.80
2023-04-22T08:10:14.578Z,2.80
2023-04-22T08:11:14.554Z,2.80
2023-04-22T08:12:14.545Z,2.80
2023-04-22T08:13:15.887Z,2.90
2023-04-22T08:14:14.535Z,2.70
2023-04-22T08:15:14.555Z,2.50
2023-04-22T08:16:14.571Z,2.50
2023-04-22T08:17:14.524Z,2.40
2023-04-22T08:18:14.508Z,2.50
2023-04-22T08:19:14.504Z,2.30
2023-04-22T08:20:14.531Z,2.90
2023-04-22T08:21:14.514Z,2.60
2023-04-22T08:22:14.492Z,2.20
2023-04-22T08:23:14.480Z,2.70
2023-04-22T08:24:14.478Z,2.50
2023-04-22T08:25:14.496Z,2.50
2023-04-22T08:26:14.461Z,2.50
2023-04-22T08:27:14.454Z,2.30
2023-04-22T08:28:14.449Z,2.40
2023-04-22T08:29:14.447Z,2.50
2023-04-22T08:30:14.464Z,2.50
2023-04-22T08:31:14.439Z,2.40
2023-04-22T08:32:14.421Z,2.30
2023-04-22T08:33:14.427Z,2.60
2023-04-22T08:34:14.412Z,2.60
2023-04-22T08:35:14.420Z,2.50
2023-04-22T08:36:14.403Z,2.40
2023-04-22T08:37:14.390Z,2.60
2023-04-22T08:38:14.412Z,2.50
2023-04-22T08:39:14.380Z,2.20
2023-04-22T08:40:14.389Z,2.50
2023-04-22T08:41:14.367Z,2.50
2023-04-22T08:42:14.346Z,2.50
2023-04-22T08:43:14.347Z,2.50
2023-04-22T08:44:14.358Z,2.20
2023-04-22T08:45:14.353Z,2.40
2023-04-22T08:46:14.345Z,2.50
2023-04-22T08:47:14.318Z,2.70
2023-04-22T08:48:14.305Z,2.40
2023-04-22T08:49:14.300Z,2.70
2023-04-22T08:50:14.317Z,2.30
2023-04-22T08:51:14.285Z,2.40
2023-04-22T08:52:14.281Z,2.60
2023-04-22T08:53:14.272Z,2.30
2023-04-22T08:54:14.268Z,2.30
2023-04-22T08:55:14.281Z,2.20
2023-04-22T08:56:14.254Z,2.40
2023-04-22T08:57:14.249Z,2.30
2023-04-22T08:58:14.241Z,2.40
2023-04-22T08:59:14.237Z,2.30
2023-04-22T09:00:14.253Z,3.10
2023-04-22T09:01:14.250Z,2.10
2023-04-22T09:02:14.277Z,3.10
2023-04-22T09:03:14.249Z,2.80
2023-04-22T09:04:14.333Z,2.40
2023-04-22T09:05:14.218Z,2.30
2023-04-22T09:06:14.183Z,2.20
2023-04-22T09:07:14.175Z,2.60
2023-04-22T09:08:14.166Z,2.00
2023-04-22T09:09:14.158Z,2.30
2023-04-22T09:10:14.198Z,2.80
2023-04-22T09:11:14.154Z,2.30
2023-04-22T09:12:14.151Z,2.30
2023-04-22T09:13:14.132Z,2.40
2023-04-22T09:14:14.134Z,2.30
2023-04-22T09:15:14.144Z,2.30
2023-04-22T09:16:14.140Z,2.30
2023-04-22T09:17:14.108Z,2.40
2023-04-22T09:18:14.100Z,2.20
2023-04-22T09:19:14.086Z,2.20
2023-04-22T09:20:15.113Z,2.30
2023-04-22T09:21:14.077Z,2.40
2023-04-22T09:22:14.145Z,2.30
2023-04-22T09:23:14.060Z,2.00
2023-04-22T09:24:14.060Z,2.00
2023-04-22T09:25:14.073Z,2.50
2023-04-22T09:26:14.045Z,2.80
2023-04-22T09:27:14.034Z,2.50
2023-04-22T09:28:14.041Z,2.00
2023-04-22T09:29:14.019Z,2.50
2023-04-22T09:30:14.037Z,2.00
2023-04-22T09:31:14.053Z,2.30
2023-04-22T09:32:14.098Z,2.40
2023-04-22T09:33:14.003Z,2.50
2023-04-22T09:34:13.988Z,2.30
2023-04-22T09:35:14.010Z,2.00
2023-04-22T09:36:13.965Z,2.20
2023-04-22T09:37:13.961Z,2.50
2023-04-22T09:38:14.103Z,2.30
2023-04-22T09:39:13.967Z,2.70
2023-04-22T09:40:13.970Z,2.30
2023-04-22T09:41:13.932Z,2.30
2023-04-22T09:42:13.929Z,2.20
2023-04-22T09:43:13.920Z,2.40
2023-04-22T09:44:13.908Z,2.70
2023-04-22T09:45:13.949Z,2.10
2023-04-22T09:46:13.946Z,2.00
2023-04-22T09:47:13.895Z,2.20
2023-04-22T09:48:13.907Z,2.10
2023-04-22T09:49:13.876Z,2.30
2023-04-22T09:50:13.869Z,2.10
2023-04-22T09:51:13.883Z,2.10
2023-04-22T09:52:13.860Z,2.20
2023-04-22T09:53:13.847Z,2.20
2023-04-22T09:54:13.835Z,2.10
2023-04-22T09:55:13.836Z,2.30
2023-04-22T09:56:13.855Z,2.30
2023-04-22T09:57:13.821Z,2.20
2023-04-22T09:58:13.825Z,2.20
2023-04-22T09:59:13.800Z,2.20
2023-04-22T10:00:13.815Z,2.10
2023-04-22T10:01:13.854Z,2.10
2023-04-22T10:02:13.825Z,2.20
2023-04-22T10:03:13.950Z,3.00
2023-04-22T10:04:13.850Z,2.60
2023-04-22T10:05:13.752Z,3.00
2023-04-22T10:06:13.775Z,2.30
2023-04-22T10:07:13.744Z,3.30
2023-04-22T10:08:13.750Z,2.90
2023-04-22T10:09:13.722Z,2.30
2023-04-22T10:10:13.762Z,2.40
2023-04-22T10:11:13.774Z,2.10
2023-04-22T10:12:15.113Z,1.90
2023-04-22T10:13:13.696Z,2.00
2023-04-22T10:14:13.680Z,2.10
2023-04-22T10:15:13.881Z,2.00
2023-04-22T10:16:13.689Z,3.10
2023-04-22T10:17:13.668Z,3.40
2023-04-22T10:18:13.665Z,2.70
2023-04-22T10:19:13.641Z,2.20
2023-04-22T10:20:13.644Z,2.50
2023-04-22T10:21:13.658Z,2.20
2023-04-22T10:22:13.621Z,2.20
2023-04-22T10:23:13.615Z,2.00
2023-04-22T10:24:13.600Z,2.30
2023-04-22T10:25:13.604Z,2.40
2023-04-22T10:26:13.614Z,1.80
2023-04-22T10:27:13.581Z,2.10
2023-04-22T10:28:13.584Z,2.00
2023-04-22T10:29:13.571Z,1.90
2023-04-22T10:30:13.556Z,1.90
2023-04-22T10:31:13.697Z,2.30
2023-04-22T10:32:13.547Z,1.80
2023-04-22T10:33:13.542Z,2.00
2023-04-22T10:34:13.525Z,2.30
2023-04-22T10:35:13.518Z,2.10
2023-04-22T10:36:13.534Z,2.00
2023-04-22T10:37:13.515Z,2.30
2023-04-22T10:38:13.512Z,1.90
2023-04-22T10:39:13.489Z,2.10
2023-04-22T10:40:13.487Z,1.80
2023-04-22T10:41:13.503Z,1.80
2023-04-22T10:42:13.472Z,1.90
2023-04-22T10:43:13.456Z,2.20
2023-04-22T10:44:13.450Z,1.90
2023-04-22T10:45:13.455Z,2.20
2023-04-22T10:46:13.493Z,2.10
2023-04-22T10:47:13.459Z,1.70
2023-04-22T10:48:13.422Z,1.90
2023-04-22T10:49:13.414Z,2.10
2023-04-22T10:50:13.437Z,1.90
2023-04-22T10:51:13.433Z,1.70
2023-04-22T10:52:13.393Z,1.90
2023-04-22T10:53:13.386Z,1.80
2023-04-22T10:54:13.388Z,2.00
2023-04-22T10:55:13.374Z,1.90
2023-04-22T10:56:13.387Z,1.60
2023-04-22T10:57:13.358Z,2.00
2023-04-22T10:58:13.351Z,1.90
2023-04-22T10:59:13.331Z,1.70
2023-04-22T11:00:14.362Z,1.90
2023-04-22T11:01:13.366Z,2.10
2023-04-22T11:02:13.423Z,1.70
2023-04-22T11:03:13.440Z,1.80
2023-04-22T11:04:13.401Z,1.90
2023-04-22T11:05:13.296Z,2.00
2023-04-22T11:06:13.286Z,2.20
2023-04-22T11:07:13.302Z,1.70
2023-04-22T11:08:13.270Z,1.70
2023-04-22T11:09:13.263Z,1.70
2023-04-22T11:10:13.259Z,2.10
2023-04-22T11:11:13.253Z,1.30
2023-04-22T11:12:13.262Z,1.30
2023-04-22T11:13:13.227Z,0.70
2023-04-22T11:14:13.223Z,1.10
2023-04-22T11:15:13.209Z,1.00
2023-04-22T11:16:13.264Z,1.00
2023-04-22T11:17:13.204Z,1.10
2023-04-22T11:18:13.193Z,1.00
2023-04-22T11:19:13.183Z,1.10
2023-04-22T11:20:13.186Z,1.80
2023-04-22T11:21:13.198Z,2.40
2023-04-22T11:22:13.292Z,1.80
2023-04-22T11:23:13.163Z,1.20
2023-04-22T11:24:13.149Z,1.10
2023-04-22T11:25:13.143Z,1.10
2023-04-22T11:26:13.171Z,1.10
2023-04-22T11:27:13.120Z,1.50
2023-04-22T11:28:13.269Z,1.30
2023-04-22T11:29:13.109Z,1.20
2023-04-22T11:30:13.102Z,1.10
2023-04-22T11:31:13.150Z,1.20
2023-04-22T11:32:13.087Z,1.50
2023-04-22T11:33:13.083Z,1.20
2023-04-22T11:34:13.074Z,1.30
2023-04-22T11:35:13.074Z,1.00
2023-04-22T11:36:13.118Z,1.10
2023-04-22T11:37:13.050Z,1.20
2023-04-22T11:38:13.042Z,1.40
2023-04-22T11:39:13.040Z,1.10
2023-04-22T11:40:28.999Z,1.10
2023-04-22T11:41:15.042Z,1.90
2023-04-22T11:42:13.006Z,1.50
2023-04-22T11:43:13.010Z,1.40
2023-04-22T11:44:12.994Z,1.20
2023-04-22T11:45:12.982Z,1.20
2023-04-22T11:46:13.095Z,1.00
2023-04-22T11:47:12.974Z,2.30
2023-04-22T11:48:12.977Z,1.90
2023-04-22T11:49:12.961Z,1.00
2023-04-22T11:50:13.044Z,1.10
2023-04-22T11:51:12.948Z,0.90
2023-04-22T11:52:12.970Z,1.10
2023-04-22T11:53:12.930Z,1.10
2023-04-22T11:54:12.915Z,1.00
2023-04-22T11:55:12.898Z,0.90
2023-04-22T11:56:12.927Z,0.90
2023-04-22T11:57:12.897Z,1.10
2023-04-22T11:58:12.879Z,1.30
2023-04-22T11:59:12.884Z,1.40
2023-04-22T12:00:12.934Z,1.30
2023-04-22T12:01:12.859Z,1.50
2023-04-22T12:02:13.040Z,1.40
2023-04-22T12:03:15.095Z,1.50
2023-04-22T12:04:12.929Z,1.20
2023-04-22T12:05:12.844Z,0.90
2023-04-22T12:06:12.865Z,1.40
2023-04-22T12:07:12.815Z,1.20
2023-04-22T12:08:12.812Z,1.10
2023-04-22T12:09:14.015Z,1.00
2023-04-22T12:10:12.812Z,1.30
2023-04-22T12:11:12.857Z,1.10
2023-04-22T12:12:12.826Z,1.30
2023-04-22T12:13:12.765Z,1.30
2023-04-22T12:14:12.759Z,1.40
2023-04-22T12:15:13.868Z,1.10
2023-04-22T12:16:13.759Z,1.00
2023-04-22T12:17:12.810Z,1.00
2023-04-22T12:18:12.722Z,1.00
2023-04-22T12:19:12.895Z,1.10
2023-04-22T12:20:12.811Z,1.10
2023-04-22T12:21:12.780Z,1.00
2023-04-22T12:22:12.694Z,1.20
2023-04-22T12:23:12.681Z,1.20
2023-04-22T12:24:12.680Z,1.10
2023-04-22T12:25:12.679Z,1.10
2023-04-22T12:26:12.684Z,1.10
2023-04-22T12:27:12.652Z,1.20
2023-04-22T12:28:12.651Z,1.00
2023-04-22T12:29:12.636Z,1.00
2023-04-22T12:30:12.657Z,1.10
2023-04-22T12:31:12.713Z,1.60
2023-04-22T12:32:12.612Z,1.20
2023-04-22T12:33:12.609Z,1.00
2023-04-22T12:34:12.605Z,1.00
2023-04-22T12:35:12.595Z,1.20
2023-04-22T12:36:12.611Z,1.30
2023-04-22T12:37:12.590Z,1.40
2023-04-22T12:38:12.651Z,1.40
2023-04-22T12:39:12.562Z,1.70
2023-04-22T12:40:12.653Z,1.30
2023-04-22T12:41:12.540Z,1.50
2023-04-22T12:42:12.574Z,1.30
2023-04-22T12:43:12.540Z,1.50
2023-04-22T12:44:12.537Z,1.40
2023-04-22T12:45:12.524Z,1.40
2023-04-22T12:46:12.515Z,1.50
2023-04-22T12:47:12.533Z,1.50
2023-04-22T12:48:12.501Z,1.40
2023-04-22T12:49:12.489Z,1.50
2023-04-22T12:50:12.489Z,1.40
2023-04-22T12:51:12.478Z,1.70
2023-04-22T12:52:12.492Z,1.40
2023-04-22T12:53:12.459Z,1.30
2023-04-22T12:54:12.448Z,1.20
2023-04-22T12:55:12.435Z,0.80
2023-04-22T12:56:12.451Z,0.80
2023-04-22T12:57:12.448Z,0.80
2023-04-22T12:58:12.416Z,0.90
2023-04-22T12:59:12.416Z,0.90
2023-04-22T13:00:12.405Z,1.00
2023-04-22T13:01:12.402Z,1.00
2023-04-22T13:02:12.598Z,1.10
2023-04-22T13:03:12.558Z,1.00
2023-04-22T13:04:12.432Z,0.90
2023-04-22T13:05:12.368Z,1.20
2023-04-22T13:06:12.377Z,0.80
2023-04-22T13:07:12.346Z,1.10
2023-04-22T13:08:12.341Z,1.00
2023-04-22T13:09:12.334Z,0.90
2023-04-22T13:10:12.330Z,0.90
2023-04-22T13:11:12.346Z,0.70
2023-04-22T13:12:12.309Z,1.00
2023-04-22T13:14:13.297Z,0.80
2023-04-22T13:15:12.313Z,1.00
2023-04-22T13:16:12.394Z,1.00
2023-04-22T13:17:12.268Z,1.00
2023-04-22T13:18:12.374Z,0.80
2023-04-22T13:19:12.296Z,1.00